Time;durP1;ratioP1;P1;durP2;ratioP2;P2;SDS_P1;SDS_P2;PMS_P1;PMS_P2;Temp;Humidity;BMP_temperature;BMP_pressure;BME280_temperature;BME280_humidity;BME280_pressure;Samples;Min_cycle;Max_cycle;Signal;HPM_P1;HPM_P2
2022/11/28 00:01:37;;;;;;;2.13;1.92;;;16.30;61.30;;;;;;5047722;28;20253;-67
2022/11/28 00:04:04;;;;;;;4.35;2.05;;;16.20;61.30;;;;;;5047563;28;20186;-66
2022/11/28 00:06:29;;;;;;;4.07;2.47;;;16.20;61.40;;;;;;5045656;28;20442;-66
2022/11/28 00:08:57;;;;;;;3.67;1.95;;;16.20;61.40;;;;;;5047702;28;20211;-66
2022/11/28 00:11:22;;;;;;;1.88;1.58;;;16.20;61.40;;;;;;5047475;28;20285;-65
2022/11/28 00:13:48;;;;;;;2.13;1.90;;;16.20;61.50;;;;;;5051146;28;20203;-65
2022/11/28 00:16:16;;;;;;;4.03;2.75;;;16.10;61.50;;;;;;5052500;28;20199;-71
2022/11/28 00:18:41;;;;;;;4.60;2.40;;;16.10;61.60;;;;;;5050397;28;20231;-71
2022/11/28 00:21:09;;;;;;;7.05;2.50;;;16.10;61.70;;;;;;5046525;28;20320;-70
2022/11/28 00:23:34;;;;;;;2.88;2.30;;;16.10;61.70;;;;;;5045748;28;20546;-70
2022/11/28 00:26:01;;;;;;;2.75;2.13;;;16.00;61.70;;;;;;5047372;28;20241;-69
2022/11/28 00:28:27;;;;;;;2.75;2.13;;;16.10;61.70;;;;;;5050306;28;20688;-70
2022/11/28 00:30:52;;;;;;;2.78;2.10;;;16.10;61.70;;;;;;5049600;28;20167;-68
2022/11/28 00:33:18;;;;;;;2.47;2.28;;;16.00;61.60;;;;;;5052307;28;20190;-69
2022/11/28 00:35:43;;;;;;;2.50;1.98;;;16.00;61.70;;;;;;5055599;28;20174;-69
2022/11/28 00:38:09;;;;;;;2.85;2.38;;;16.00;61.70;;;;;;5053920;28;20176;-70
2022/11/28 00:40:34;;;;;;;2.53;2.17;;;16.00;61.70;;;;;;5049970;28;20175;-70
2022/11/28 00:43:00;;;;;;;3.03;2.20;;;16.00;61.70;;;;;;5051603;28;20175;-70
2022/11/28 00:45:25;;;;;;;3.08;2.40;;;15.90;61.70;;;;;;5053128;28;20515;-69
2022/11/28 00:47:51;;;;;;;4.32;2.30;;;15.90;61.70;;;;;;5054497;28;20211;-69
2022/11/28 00:50:16;;;;;;;3.72;2.30;;;15.90;61.80;;;;;;5055009;28;20190;-69
2022/11/28 00:52:42;;;;;;;2.47;2.28;;;15.90;61.70;;;;;;5050785;28;20600;-70
2022/11/28 00:55:07;;;;;;;1.98;1.88;;;15.90;61.80;;;;;;5054597;28;20179;-69
2022/11/28 00:57:33;;;;;;;2.42;2.13;;;15.90;61.80;;;;;;5055025;28;20609;-69
2022/11/28 00:59:59;;;;;;;2.45;2.25;;;15.90;61.80;;;;;;5050084;28;20217;-69
2022/11/28 01:02:24;;;;;;;2.67;2.30;;;15.90;61.80;;;;;;5050465;28;20250;-69
2022/11/28 01:04:50;;;;;;;3.30;2.20;;;15.90;61.70;;;;;;5051162;28;20693;-68
2022/11/28 01:07:15;;;;;;;2.33;2.13;;;15.80;61.70;;;;;;5052946;28;20337;-68
2022/11/28 01:09:41;;;;;;;2.28;2.10;;;15.90;61.70;;;;;;5048002;28;20297;-69
2022/11/28 01:12:06;;;;;;;2.40;2.20;;;15.80;61.70;;;;;;5049848;28;20657;-69
2022/11/28 01:14:32;;;;;;;2.72;2.47;;;15.80;61.90;;;;;;5049613;28;20179;-72
2022/11/28 01:16:57;;;;;;;2.08;1.88;;;15.80;61.80;;;;;;5051105;28;20211;-71
2022/11/28 01:19:23;;;;;;;3.67;2.30;;;15.80;61.70;;;;;;5054743;28;20264;-71
2022/11/28 01:21:48;;;;;;;2.70;2.00;;;15.80;61.90;;;;;;5053598;28;20256;-71
2022/11/28 01:24:14;;;;;;;2.47;2.30;;;15.80;61.90;;;;;;5053034;28;20183;-70
2022/11/28 01:26:40;;;;;;;2.92;2.33;;;15.80;61.90;;;;;;5054508;28;20279;-70
2022/11/28 01:29:06;;;;;;;3.15;2.00;;;15.80;61.90;;;;;;5050463;28;20207;-68
2022/11/28 01:31:31;;;;;;;2.63;2.08;;;15.80;62.00;;;;;;5053362;28;20190;-68
2022/11/28 01:33:57;;;;;;;3.20;2.60;;;15.80;61.90;;;;;;5054591;28;20720;-69
2022/11/28 01:36:22;;;;;;;2.10;1.90;;;15.80;61.90;;;;;;5053292;28;20178;-70
2022/11/28 01:38:48;;;;;;;2.42;2.22;;;15.70;61.90;;;;;;5054271;28;20201;-70
2022/11/28 01:41:14;;;;;;;2.22;2.03;;;15.70;61.90;;;;;;5054541;28;20179;-69
2022/11/28 01:44:10;;;;;;;2.55;2.22;;;15.70;61.90;;;;;;5052379;28;20195;-70
2022/11/28 01:46:36;;;;;;;2.40;2.20;;;15.70;61.90;;;;;;5054219;28;20171;-68
2022/11/28 01:49:15;;;;;;;2.15;2.00;;;15.70;61.90;;;;;;5054326;28;20222;-68
2022/11/28 01:51:43;;;;;;;4.40;2.10;;;15.70;62.00;;;;;;5051928;28;20193;-69
2022/11/28 01:54:09;;;;;;;2.42;2.20;;;15.70;61.90;;;;;;5052924;28;20184;-69
2022/11/28 01:56:40;;;;;;;2.10;2.00;;;15.70;62.00;;;;;;5049275;28;20476;-70
2022/11/28 01:59:06;;;;;;;2.15;1.88;;;15.70;62.00;;;;;;5046937;28;20187;-68
2022/11/28 02:01:32;;;;;;;2.67;2.10;;;15.70;62.00;;;;;;5032108;28;20294;-70
2022/11/28 02:03:57;;;;;;;4.38;2.50;;;15.70;62.00;;;;;;5049131;28;20665;-69
2022/11/28 02:06:23;;;;;;;2.20;2.00;;;15.70;62.00;;;;;;5051358;28;20564;-69
2022/11/28 02:08:52;;;;;;;2.47;2.28;;;15.70;62.00;;;;;;5052280;28;20639;-69
2022/11/28 02:11:33;;;;;;;2.40;2.20;;;15.60;62.00;;;;;;5051055;28;20266;-69
2022/11/28 02:14:14;;;;;;;2.58;2.22;;;15.70;62.10;;;;;;5050294;28;20174;-70
2022/11/28 02:16:58;;;;;;;2.10;1.90;;;15.60;61.90;;;;;;5031141;28;20214;-72
2022/11/28 02:19:41;;;;;;;2.00;1.90;;;15.60;62.00;;;;;;5048391;28;20262;-72
2022/11/28 02:22:22;;;;;;;2.22;2.03;;;15.60;62.10;;;;;;5050651;28;20167;-70
2022/11/28 02:25:02;;;;;;;2.38;2.10;;;15.60;62.10;;;;;;5052339;28;20183;-69
2022/11/28 02:27:37;;;;;;;2.60;2.13;;;15.60;62.10;;;;;;5050636;28;20167;-70
2022/11/28 02:30:38;;;;;;;2.50;2.10;;;15.60;62.20;;;;;;5047967;28;20167;-68
2022/11/28 02:33:17;;;;;;;3.00;2.00;;;15.60;62.10;;;;;;5035625;28;20183;-68
2022/11/28 02:35:58;;;;;;;2.00;1.90;;;15.60;62.20;;;;;;5047528;28;20190;-69
2022/11/28 02:38:29;;;;;;;2.30;1.92;;;15.60;62.20;;;;;;5050898;28;20209;-72
2022/11/28 02:40:58;;;;;;;2.28;2.08;;;15.60;62.20;;;;;;5052428;28;20534;-70
2022/11/28 02:43:32;;;;;;;2.30;2.10;;;15.60;62.20;;;;;;5048592;28;20175;-70
2022/11/28 02:46:01;;;;;;;1.95;1.75;;;15.50;62.20;;;;;;5047948;28;20256;-68
2022/11/28 02:48:59;;;;;;;3.53;2.13;;;15.50;62.20;;;;;;5047133;28;20815;-69
2022/11/28 02:51:40;;;;;;;2.20;1.92;;;15.60;62.20;;;;;;5019012;28;20198;-69
2022/11/28 02:54:07;;;;;;;2.25;1.80;;;15.50;62.20;;;;;;5030108;28;20638;-69
2022/11/28 02:56:33;;;;;;;2.00;1.90;;;15.50;62.20;;;;;;5031144;28;20179;-70
2022/11/28 02:58:58;;;;;;;2.08;1.88;;;15.50;63.10;;;;;;5050379;28;20194;-68
2022/11/28 03:01:33;;;;;;;2.60;2.40;;;15.50;62.30;;;;;;5049605;28;20178;-69
2022/11/28 03:04:08;;;;;;;2.42;2.22;;;15.50;62.30;;;;;;5048506;28;20194;-68
2022/11/28 03:07:10;;;;;;;3.17;2.13;;;15.50;62.30;;;;;;5051489;28;20174;-69
2022/11/28 03:09:40;;;;;;;1.77;1.67;;;15.50;62.30;;;;;;5048752;28;20194;-69
2022/11/28 03:12:27;;;;;;;2.40;2.20;;;15.50;62.30;;;;;;5051504;28;20713;-69
2022/11/28 03:14:54;;;;;;;2.38;2.17;;;15.50;62.40;;;;;;5050037;28;20559;-70
2022/11/28 03:17:47;;;;;;;2.00;1.90;;;15.50;63.20;;;;;;5049077;28;20693;-70
2022/11/28 03:20:36;;;;;;;1.70;1.60;;;15.40;62.10;;;;;;5037267;28;20168;-71
2022/11/28 03:23:20;;;;;;;2.10;1.90;;;15.40;62.20;;;;;;5030870;28;20180;-71
2022/11/28 03:26:07;;;;;;;2.35;2.15;;;15.40;62.40;;;;;;5039691;28;20175;-68
2022/11/28 03:28:38;;;;;;;2.22;2.00;;;15.40;62.40;;;;;;5035658;28;20211;-69
2022/11/28 03:31:09;;;;;;;2.10;1.77;;;15.40;62.10;;;;;;5048834;28;20190;-67
2022/11/28 03:33:36;;;;;;;2.15;2.00;;;15.40;62.10;;;;;;5050697;28;20282;-70
2022/11/28 03:36:18;;;;;;;3.05;2.42;;;15.40;62.40;;;;;;5051604;28;20181;-70
2022/11/28 03:38:47;;;;;;;2.53;2.33;;;15.40;62.40;;;;;;5050186;28;20214;-70
2022/11/28 03:41:48;;;;;;;2.35;1.98;;;15.40;62.40;;;;;;5051221;28;20183;-70
2022/11/28 03:44:17;;;;;;;2.40;2.25;;;15.40;62.40;;;;;;5050115;28;20217;-69
2022/11/28 03:46:45;;;;;;;2.28;2.10;;;15.40;62.40;;;;;;5034260;28;20640;-69
2022/11/28 03:49:12;;;;;;;2.30;2.10;;;15.40;62.30;;;;;;5034729;28;20203;-68
2022/11/28 03:51:50;;;;;;;2.20;2.00;;;15.40;62.40;;;;;;5033843;28;20258;-69
2022/11/28 03:54:21;;;;;;;2.50;2.30;;;15.40;62.30;;;;;;5035307;28;20254;-69
2022/11/28 03:57:07;;;;;;;2.45;2.15;;;15.40;62.40;;;;;;5048377;28;20175;-69
2022/11/28 03:59:37;;;;;;;2.08;1.90;;;15.40;62.40;;;;;;5046392;28;20202;-69
2022/11/28 04:02:11;;;;;;;2.00;1.90;;;15.40;62.40;;;;;;5047366;28;20672;-69
2022/11/28 04:04:47;;;;;;;1.88;1.77;;;15.40;62.40;;;;;;5030737;28;20179;-70
2022/11/28 04:07:38;;;;;;;2.83;2.30;;;15.40;62.50;;;;;;5034223;28;20543;-69
2022/11/28 04:10:17;;;;;;;2.28;2.05;;;15.40;62.40;;;;;;5050442;28;20198;-69
2022/11/28 04:13:03;;;;;;;2.00;1.90;;;15.30;62.50;;;;;;5049132;28;20527;-71
2022/11/28 04:15:54;;;;;;;1.80;1.70;;;15.30;62.50;;;;;;5051130;28;20677;-71
2022/11/28 04:18:43;;;;;;;1.80;1.70;;;15.30;62.40;;;;;;5040023;28;20805;-71
2022/11/28 04:21:25;;;;;;;1.77;1.67;;;15.30;62.40;;;;;;5051739;28;20175;-70
2022/11/28 04:23:51;;;;;;;2.17;1.98;;;15.30;62.50;;;;;;5051271;28;20183;-69
2022/11/28 04:26:23;;;;;;;2.30;2.10;;;15.30;62.40;;;;;;5053295;28;20178;-69
2022/11/28 04:28:49;;;;;;;2.92;1.92;;;15.30;62.40;;;;;;5050493;28;20666;-69
2022/11/28 04:31:16;;;;;;;2.75;2.08;;;15.30;62.50;;;;;;5050084;28;20655;-69
2022/11/28 04:33:43;;;;;;;2.00;1.90;;;15.30;62.50;;;;;;5054433;28;20270;-71
2022/11/28 04:36:08;;;;;;;2.13;1.92;;;15.30;62.50;;;;;;5054305;28;20175;-71
2022/11/28 04:38:34;;;;;;;2.25;2.10;;;15.30;62.60;;;;;;5052158;28;20178;-73
2022/11/28 04:41:11;;;;;;;1.80;1.70;;;15.30;62.60;;;;;;5054646;28;20684;-71
2022/11/28 04:43:41;;;;;;;2.15;2.00;;;15.30;62.50;;;;;;5053208;28;20197;-70
2022/11/28 04:46:18;;;;;;;2.00;1.90;;;15.30;62.60;;;;;;5053678;28;20180;-70
2022/11/28 04:48:44;;;;;;;2.00;1.90;;;15.30;62.60;;;;;;5050839;28;20207;-69
2022/11/28 04:51:30;;;;;;;1.80;1.65;;;15.20;62.60;;;;;;5053255;28;20179;-70
2022/11/28 04:54:15;;;;;;;2.00;1.90;;;15.20;62.70;;;;;;5053534;28;20225;-70
2022/11/28 04:56:45;;;;;;;3.03;1.70;;;15.20;62.70;;;;;;5053043;28;20183;-71
2022/11/28 04:59:11;;;;;;;2.70;1.85;;;15.20;62.70;;;;;;5053965;28;20175;-70
2022/11/28 05:01:37;;;;;;;2.10;2.00;;;15.20;62.60;;;;;;5036456;28;20206;-71
2022/11/28 05:04:02;;;;;;;2.28;2.08;;;15.30;62.50;;;;;;5054055;28;20254;-70
2022/11/28 05:06:33;;;;;;;1.90;1.80;;;15.20;62.50;;;;;;5055297;28;20171;-70
2022/11/28 05:08:58;;;;;;;1.95;1.77;;;15.20;62.50;;;;;;5054427;28;20218;-69
2022/11/28 05:11:24;;;;;;;2.10;2.00;;;15.20;62.50;;;;;;5051448;28;20641;-70
2022/11/28 05:13:50;;;;;;;2.25;1.85;;;15.20;62.70;;;;;;5053394;28;20270;-72
2022/11/28 05:16:15;;;;;;;1.75;1.65;;;15.20;62.40;;;;;;5054864;28;20222;-70
2022/11/28 05:18:41;;;;;;;2.25;2.03;;;15.20;62.50;;;;;;5049601;28;20301;-72
2022/11/28 05:21:07;;;;;;;2.13;2.03;;;15.20;62.60;;;;;;5053661;28;20179;-71
2022/11/28 05:23:38;;;;;;;1.95;1.85;;;15.20;62.70;;;;;;5054614;28;20190;-71
2022/11/28 05:26:08;;;;;;;2.10;2.00;;;15.20;62.50;;;;;;5052209;28;20171;-70
2022/11/28 05:28:33;;;;;;;2.05;1.85;;;15.20;62.40;;;;;;5053547;28;20349;-71
2022/11/28 05:31:00;;;;;;;2.50;2.03;;;15.20;62.40;;;;;;5054400;28;20288;-69
2022/11/28 05:33:25;;;;;;;1.98;1.88;;;15.20;62.50;;;;;;5054686;28;20645;-70
2022/11/28 05:35:51;;;;;;;3.20;2.13;;;15.20;62.50;;;;;;5053704;28;20179;-71
2022/11/28 05:38:16;;;;;;;2.30;1.88;;;15.20;62.40;;;;;;5054714;28;20163;-72
2022/11/28 05:40:43;;;;;;;2.30;2.10;;;15.20;62.50;;;;;;5054194;28;20175;-72
2022/11/28 05:43:09;;;;;;;1.85;1.75;;;15.10;62.40;;;;;;5053739;28;20248;-71
2022/11/28 05:45:39;;;;;;;2.20;2.00;;;15.10;63.20;;;;;;5054255;28;20631;-71
2022/11/28 05:48:05;;;;;;;1.80;1.70;;;15.20;62.50;;;;;;5054363;28;20218;-70
2022/11/28 05:50:30;;;;;;;1.80;1.70;;;15.10;62.40;;;;;;5051664;28;20176;-70
2022/11/28 05:52:56;;;;;;;1.92;1.75;;;15.10;62.40;;;;;;5050586;28;20171;-70
2022/11/28 05:55:21;;;;;;;1.80;1.70;;;15.10;62.30;;;;;;5052309;28;20953;-71
2022/11/28 05:57:47;;;;;;;1.77;1.67;;;15.10;62.40;;;;;;5051646;28;20638;-69
2022/11/28 06:00:13;;;;;;;2.17;1.98;;;15.10;62.40;;;;;;5053327;28;20225;-70
2022/11/28 06:02:38;;;;;;;2.53;1.90;;;15.10;62.40;;;;;;5050154;28;20198;-70
2022/11/28 06:05:04;;;;;;;1.70;1.60;;;15.10;62.40;;;;;;5049643;28;20642;-69
2022/11/28 06:07:30;;;;;;;1.70;1.60;;;15.10;62.40;;;;;;5050358;28;20190;-70
2022/11/28 06:09:55;;;;;;;1.80;1.70;;;15.10;62.60;;;;;;5048396;28;20249;-69
2022/11/28 06:12:21;;;;;;;1.83;1.73;;;15.20;62.30;;;;;;5053081;28;20175;-70
2022/11/28 06:14:46;;;;;;;2.03;1.90;;;15.20;62.00;;;;;;5053682;28;20266;-72
2022/11/28 06:17:12;;;;;;;2.00;1.90;;;15.40;61.90;;;;;;5049884;28;20306;-72
2022/11/28 06:19:37;;;;;;;1.60;1.50;;;15.50;61.70;;;;;;5049848;28;20278;-73
2022/11/28 06:22:03;;;;;;;1.90;1.80;;;15.70;61.50;;;;;;5050432;28;20167;-72
2022/11/28 06:24:28;;;;;;;1.73;1.63;;;15.80;61.00;;;;;;5049508;28;20214;-71
2022/11/28 06:26:54;;;;;;;1.70;1.60;;;16.10;60.70;;;;;;5050274;28;20183;-69
2022/11/28 06:29:20;;;;;;;1.60;1.50;;;16.40;60.40;;;;;;5051304;28;20215;-69
2022/11/28 06:31:45;;;;;;;3.17;1.48;;;16.70;59.50;;;;;;5047784;28;20175;-69
2022/11/28 06:34:11;;;;;;;1.50;1.40;;;17.00;58.90;;;;;;5050732;28;20175;-70
2022/11/28 06:36:37;;;;;;;1.63;1.52;;;17.20;58.40;;;;;;5053112;28;20178;-72
2022/11/28 06:39:03;;;;;;;1.33;1.25;;;17.40;57.90;;;;;;5050260;28;20266;-70
2022/11/28 06:41:31;;;;;;;1.70;1.33;;;17.50;57.70;;;;;;5049678;28;20179;-71
2022/11/28 06:43:57;;;;;;;1.38;1.27;;;17.60;57.50;;;;;;5051959;28;20191;-70
2022/11/28 06:46:22;;;;;;;1.40;1.30;;;17.70;57.40;;;;;;5052319;28;20175;-69
2022/11/28 06:48:49;;;;;;;1.33;1.23;;;17.70;57.30;;;;;;5044156;28;20196;-69
2022/11/28 06:51:15;;;;;;;1.10;1.10;;;17.70;57.40;;;;;;5049823;28;21054;-69
2022/11/28 06:53:40;;;;;;;1.65;1.55;;;17.60;57.50;;;;;;5048490;28;20183;-70
2022/11/28 06:56:13;;;;;;;1.77;1.65;;;17.50;57.60;;;;;;5049793;28;20171;-69
2022/11/28 06:58:38;;;;;;;1.50;1.40;;;17.40;57.80;;;;;;5049255;28;20171;-70
2022/11/28 07:01:17;;;;;;;1.20;1.20;;;17.30;58.00;;;;;;5049365;28;20672;-69
2022/11/28 07:03:43;;;;;;;1.30;1.30;;;17.20;58.20;;;;;;5050235;28;20174;-69
2022/11/28 07:06:09;;;;;;;1.48;1.38;;;17.10;58.40;;;;;;5049125;28;20175;-68
2022/11/28 07:08:34;;;;;;;1.55;1.42;;;17.10;58.70;;;;;;5048455;28;20803;-70
2022/11/28 07:11:20;;;;;;;1.70;1.60;;;17.00;58.80;;;;;;5049448;28;20183;-69
2022/11/28 07:13:46;;;;;;;1.25;1.20;;;17.00;58.70;;;;;;5047619;28;20179;-70
2022/11/28 07:16:16;;;;;;;1.40;1.30;;;17.10;58.80;;;;;;5049630;28;20179;-70
2022/11/28 07:18:42;;;;;;;1.55;1.45;;;17.10;58.70;;;;;;5049056;28;20269;-72
2022/11/28 07:21:08;;;;;;;1.55;1.45;;;17.20;58.60;;;;;;5048799;28;20171;-71
2022/11/28 07:23:33;;;;;;;1.55;1.45;;;17.30;58.40;;;;;;5052415;28;20186;-71
2022/11/28 07:26:00;;;;;;;1.30;1.20;;;17.40;58.20;;;;;;5051097;28;20513;-69
2022/11/28 07:28:26;;;;;;;1.80;1.40;;;17.50;58.10;;;;;;5048717;28;20670;-68
2022/11/28 07:31:11;;;;;;;1.40;1.30;;;17.50;58.00;;;;;;5049043;28;20186;-69
2022/11/28 07:33:37;;;;;;;1.27;1.17;;;17.50;58.00;;;;;;5048885;28;20254;-70
2022/11/28 07:36:04;;;;;;;1.40;1.30;;;17.50;57.90;;;;;;5047119;28;20175;-70
2022/11/28 07:38:30;;;;;;;1.10;1.10;;;17.60;57.80;;;;;;5049222;28;20274;-72
2022/11/28 07:41:02;;;;;;;1.30;1.20;;;17.70;57.60;;;;;;5048998;28;20329;-71
2022/11/28 07:43:27;;;;;;;1.13;0.90;;;17.80;57.50;;;;;;5048235;28;20180;-70
2022/11/28 07:45:53;;;;;;;1.30;1.20;;;17.90;57.40;;;;;;5049021;28;20167;-69
2022/11/28 07:48:18;;;;;;;1.73;1.20;;;17.90;57.20;;;;;;5048572;28;20228;-69
2022/11/28 07:50:44;;;;;;;1.27;1.17;;;18.00;57.10;;;;;;5048599;28;20183;-69
2022/11/28 07:53:10;;;;;;;1.83;1.40;;;18.10;57.00;;;;;;5048713;28;20175;-69
2022/11/28 07:55:44;;;;;;;1.30;1.20;;;18.10;56.90;;;;;;5048694;28;20171;-70
2022/11/28 07:58:10;;;;;;;1.30;1.20;;;18.20;56.80;;;;;;5048182;28;20181;-66
2022/11/28 08:00:35;;;;;;;4.63;1.48;;;18.20;56.90;;;;;;5050639;28;20183;-65
2022/11/28 08:03:01;;;;;;;1.30;1.20;;;18.20;57.10;;;;;;5051099;28;20186;-67
2022/11/28 08:05:26;;;;;;;4.18;1.40;;;18.00;57.10;;;;;;5052216;28;20200;-67
2022/11/28 08:07:52;;;;;;;2.95;1.60;;;17.80;57.80;;;;;;5051795;28;20167;-65
2022/11/28 08:10:17;;;;;;;3.72;1.52;;;17.70;58.00;;;;;;5051346;28;20555;-66
2022/11/28 08:12:43;;;;;;;4.43;2.20;;;17.60;58.30;;;;;;5051585;28;20285;-69
2022/11/28 08:15:09;;;;;;;3.53;1.98;;;17.40;58.60;;;;;;5051722;28;20186;-68
2022/11/28 08:17:34;;;;;;;8.10;1.90;;;17.40;58.80;;;;;;5050790;28;20222;-68
2022/11/28 08:20:00;;;;;;;2.15;1.52;;;17.40;59.00;;;;;;5051754;28;20179;-68
2022/11/28 08:22:26;;;;;;;2.78;1.20;;;17.30;59.00;;;;;;5051968;28;20182;-68
2022/11/28 08:24:51;;;;;;;2.90;1.70;;;17.40;59.10;;;;;;5050727;28;20622;-67
2022/11/28 08:27:17;;;;;;;4.85;1.48;;;17.40;59.00;;;;;;5051664;28;20179;-67
2022/11/28 08:29:42;;;;;;;4.22;1.40;;;17.40;59.00;;;;;;5051396;28;20211;-67
2022/11/28 08:32:08;;;;;;;3.47;1.33;;;17.40;59.10;;;;;;5050634;28;20182;-67
2022/11/28 08:34:33;;;;;;;3.45;1.50;;;17.30;59.20;;;;;;5051274;28;20566;-68
2022/11/28 08:36:59;;;;;;;3.63;1.60;;;17.30;59.20;;;;;;5051657;28;20618;-67
2022/11/28 08:39:25;;;;;;;2.25;1.65;;;17.30;59.40;;;;;;5050903;28;20194;-67
2022/11/28 08:41:51;;;;;;;2.40;1.27;;;17.20;59.50;;;;;;5051286;28;20171;-67
2022/11/28 08:44:17;;;;;;;3.83;1.30;;;17.20;59.60;;;;;;5051467;28;20183;-67
2022/11/28 08:46:42;;;;;;;2.80;1.30;;;17.30;59.70;;;;;;5050502;28;20216;-63
2022/11/28 08:49:10;;;;;;;1.63;1.52;;;17.30;59.60;;;;;;5051465;28;20576;-63
2022/11/28 08:51:36;;;;;;;1.90;1.50;;;17.20;59.60;;;;;;5051422;28;20194;-63
2022/11/28 08:54:01;;;;;;;4.35;1.85;;;17.20;59.60;;;;;;5054056;28;20566;-63
2022/11/28 08:56:27;;;;;;;2.60;1.30;;;17.10;59.70;;;;;;5055276;28;20657;-63
2022/11/28 08:58:53;;;;;;;2.50;1.40;;;17.10;59.80;;;;;;5054043;28;20183;-63
2022/11/28 09:01:21;;;;;;;2.22;1.77;;;17.00;59.80;;;;;;5054900;28;20179;-63
2022/11/28 09:03:47;;;;;;;1.75;1.45;;;17.00;59.90;;;;;;5054609;28;20190;-64
2022/11/28 09:06:13;;;;;;;2.80;1.55;;;17.00;60.00;;;;;;5054436;28;20167;-67
2022/11/28 09:08:38;;;;;;;2.90;1.20;;;17.00;59.90;;;;;;5054560;28;20642;-69
2022/11/28 09:11:11;;;;;;;4.15;1.63;;;17.10;59.90;;;;;;5055251;28;20178;-68
2022/11/28 09:13:37;;;;;;;3.38;1.50;;;17.30;59.80;;;;;;5053821;28;20186;-68
2022/11/28 09:16:03;;;;;;;4.32;1.52;;;17.50;59.60;;;;;;5055122;28;20175;-70
2022/11/28 09:18:28;;;;;;;2.83;1.35;;;17.70;59.20;;;;;;5054428;28;20230;-70
2022/11/28 09:21:01;;;;;;;3.25;1.48;;;17.90;58.70;;;;;;5053748;28;20266;-70
2022/11/28 09:23:28;;;;;;;4.40;1.70;;;18.20;58.10;;;;;;5054815;28;20202;-70
2022/11/28 09:25:53;;;;;;;4.60;1.50;;;18.30;57.70;;;;;;5054424;28;20191;-67
2022/11/28 09:28:19;;;;;;;2.22;1.30;;;18.50;57.40;;;;;;5053697;28;20203;-66
2022/11/28 09:30:44;;;;;;;2.70;1.33;;;18.60;57.00;;;;;;5053902;28;20180;-67
2022/11/28 09:33:12;;;;;;;5.68;1.98;;;18.70;56.90;;;;;;5053035;28;20182;-68
2022/11/28 09:35:38;;;;;;;2.75;1.42;;;18.80;56.90;;;;;;5053401;28;20175;-68
2022/11/28 09:38:03;;;;;;;2.80;1.27;;;18.90;56.80;;;;;;5054594;28;20537;-68
2022/11/28 09:40:36;;;;;;;1.35;1.25;;;19.00;56.60;;;;;;5057985;28;20175;-68
2022/11/28 09:43:02;;;;;;;5.20;1.30;;;19.10;56.50;;;;;;5051635;28;20237;-67
2022/11/28 09:45:28;;;;;;;2.55;1.33;;;19.20;56.60;;;;;;5036883;28;20199;-68
2022/11/28 09:47:55;;;;;;;2.00;1.10;;;19.20;56.60;;;;;;5033601;28;20658;-67
2022/11/28 09:50:32;;;;;;;1.75;1.13;;;19.20;56.70;;;;;;5033518;28;20234;-67
2022/11/28 09:53:11;;;;;;;1.27;1.17;;;19.30;56.70;;;;;;5033089;28;20187;-67
2022/11/28 09:55:46;;;;;;;2.20;1.25;;;19.30;56.60;;;;;;5032146;28;20185;-67
2022/11/28 09:58:33;;;;;;;2.53;1.00;;;19.40;56.50;;;;;;5034550;28;20266;-70
2022/11/28 10:01:14;;;;;;;4.78;1.98;;;19.40;56.60;;;;;;5045100;28;20183;-69
2022/11/28 10:03:58;;;;;;;2.55;1.98;;;19.40;56.60;;;;;;5050688;28;20172;-68
2022/11/28 10:06:30;;;;;;;3.25;1.05;;;19.50;56.60;;;;;;5053999;28;20236;-72
2022/11/28 10:09:14;;;;;;;3.70;1.45;;;19.40;56.60;;;;;;5053876;28;20293;-71
2022/11/28 10:12:08;;;;;;;2.45;1.27;;;19.50;56.50;;;;;;5052371;28;20178;-68
2022/11/28 10:15:07;;;;;;;1.52;1.20;;;19.50;56.50;;;;;;5052363;28;20186;-67
2022/11/28 10:17:45;;;;;;;2.63;1.20;;;19.50;56.60;;;;;;5039182;28;20591;-72
2022/11/28 10:20:21;;;;;;;3.17;1.40;;;19.50;56.50;;;;;;5049979;28;20198;-74
2022/11/28 10:22:55;;;;;;;2.80;1.30;;;19.50;56.40;;;;;;5053395;28;20167;-69
2022/11/28 10:25:39;;;;;;;1.77;1.25;;;19.50;56.40;;;;;;5052671;28;20580;-68
2022/11/28 10:28:06;;;;;;;2.50;1.73;;;19.50;56.30;;;;;;5051940;28;20294;-70
2022/11/28 10:30:33;;;;;;;1.42;1.15;;;19.50;56.30;;;;;;5050842;28;20201;-68
2022/11/28 10:33:07;;;;;;;2.72;1.30;;;19.50;56.10;;;;;;5051614;28;20176;-68
2022/11/28 10:35:39;;;;;;;3.42;1.10;;;19.50;56.10;;;;;;5051895;28;20248;-74
2022/11/28 10:38:10;;;;;;;1.58;0.90;;;19.50;56.10;;;;;;5052598;28;20171;-70
2022/11/28 10:40:49;;;;;;;1.95;1.20;;;19.60;56.00;;;;;;5052851;28;20179;-68
2022/11/28 10:43:19;;;;;;;1.20;1.10;;;19.60;55.90;;;;;;5051911;28;20240;-68
2022/11/28 10:45:55;;;;;;;1.40;1.10;;;19.60;55.90;;;;;;5051031;28;20297;-67
2022/11/28 10:48:36;;;;;;;1.17;1.05;;;19.60;55.80;;;;;;5044726;28;20688;-67
2022/11/28 10:51:14;;;;;;;1.48;0.98;;;19.60;55.80;;;;;;5031893;28;20645;-67
2022/11/28 10:53:43;;;;;;;2.28;1.40;;;19.70;55.70;;;;;;5031378;28;20187;-67
2022/11/28 10:56:26;;;;;;;1.83;1.40;;;19.70;55.70;;;;;;5031801;28;20198;-67
2022/11/28 10:58:52;;;;;;;1.58;1.05;;;19.70;55.70;;;;;;5032195;28;20244;-67
2022/11/28 11:01:17;;;;;;;1.90;1.38;;;19.70;55.70;;;;;;5032920;28;20542;-68
2022/11/28 11:03:43;;;;;;;2.05;1.08;;;19.70;55.70;;;;;;5031360;28;20268;-68
2022/11/28 11:06:08;;;;;;;1.52;1.25;;;19.70;55.50;;;;;;5032072;28;20171;-68
2022/11/28 11:08:38;;;;;;;1.35;1.20;;;19.70;55.40;;;;;;5032579;28;20199;-68
2022/11/28 11:11:46;;;;;;;1.00;0.90;;;19.70;55.50;;;;;;5032624;28;20229;-68
2022/11/28 11:14:11;;;;;;;2.78;1.30;;;19.70;55.40;;;;;;5030810;28;20191;-68
2022/11/28 11:16:58;;;;;;;2.25;1.42;;;19.70;55.50;;;;;;5031980;28;20223;-73
2022/11/28 11:19:30;;;;;;;3.10;1.35;;;19.80;55.40;;;;;;5051584;28;20183;-63
2022/11/28 11:22:18;;;;;;;1.00;1.00;;;19.80;55.50;;;;;;5052582;28;20246;-72
2022/11/28 11:24:44;;;;;;;1.80;1.05;;;19.80;55.40;;;;;;5052304;28;20637;-72
2022/11/28 11:27:17;;;;;;;1.80;1.20;;;19.80;55.50;;;;;;5050470;28;20178;-68
2022/11/28 11:29:42;;;;;;;1.55;1.15;;;19.90;55.50;;;;;;5051104;28;20298;-67
2022/11/28 11:32:20;;;;;;;2.25;1.20;;;19.90;55.50;;;;;;5040914;28;20179;-70
2022/11/28 11:34:46;;;;;;;0.82;0.80;;;20.00;55.60;;;;;;5030237;28;20708;-74
2022/11/28 11:37:31;;;;;;;1.55;1.20;;;19.90;55.60;;;;;;5031196;28;20256;-74
2022/11/28 11:39:57;;;;;;;2.13;1.40;;;19.90;55.80;;;;;;5032739;28;20199;-73
2022/11/28 11:42:27;;;;;;;4.93;1.17;;;19.70;56.00;;;;;;5031675;28;20253;-72
2022/11/28 11:44:53;;;;;;;3.42;1.13;;;19.60;56.40;;;;;;5032062;28;20225;-68
2022/11/28 11:47:18;;;;;;;2.15;1.00;;;19.50;56.70;;;;;;5038547;28;20254;-69
2022/11/28 11:49:50;;;;;;;1.00;0.90;;;19.50;56.80;;;;;;5050628;28;20300;-69
2022/11/28 11:52:23;;;;;;;1.80;0.98;;;19.40;56.90;;;;;;5050902;28;20258;-63
2022/11/28 11:55:10;;;;;;;1.15;1.08;;;19.50;57.00;;;;;;5051138;28;20176;-65
2022/11/28 11:57:41;;;;;;;5.38;1.25;;;19.50;56.70;;;;;;5050833;28;20183;-68
2022/11/28 12:00:15;;;;;;;2.63;1.40;;;19.30;56.80;;;;;;5052813;28;20198;-65
2022/11/28 12:02:55;;;;;;;6.03;1.40;;;19.20;57.00;;;;;;5050030;28;20179;-69
2022/11/28 12:05:48;;;;;;;4.22;1.10;;;19.20;57.20;;;;;;5050701;28;20206;-70
2022/11/28 12:08:34;;;;;;;1.52;0.98;;;19.10;57.40;;;;;;5042624;28;20233;-70
2022/11/28 12:11:08;;;;;;;4.10;1.50;;;19.00;57.50;;;;;;5030495;28;20229;-69
2022/11/28 12:13:34;;;;;;;3.72;1.25;;;19.00;57.50;;;;;;5030922;28;20506;-68
2022/11/28 12:16:19;;;;;;;11.60;2.10;;;19.10;57.60;;;;;;5031433;28;20255;-68
2022/11/28 12:19:08;;;;;;;8.23;1.58;;;19.20;57.30;;;;;;5030565;28;20183;-67
2022/11/28 12:21:36;;;;;;;14.18;1.95;;;19.40;57.00;;;;;;5030655;28;20180;-67
2022/11/28 12:24:14;;;;;;;4.68;1.20;;;19.60;56.80;;;;;;5047381;28;20233;-67
2022/11/28 12:26:50;;;;;;;7.05;1.45;;;19.70;56.60;;;;;;5051802;28;20183;-67
2022/11/28 12:29:39;;;;;;;5.60;1.42;;;19.80;56.40;;;;;;5054701;28;20552;-65
2022/11/28 12:32:10;;;;;;;5.28;1.70;;;19.90;56.20;;;;;;5055193;28;20560;-67
2022/11/28 12:34:50;;;;;;;5.43;1.50;;;19.90;56.10;;;;;;5055292;28;20186;-69
2022/11/28 12:37:48;;;;;;;5.22;1.33;;;20.00;56.00;;;;;;5050841;28;20298;-67
2022/11/28 12:40:28;;;;;;;4.90;1.70;;;20.10;56.00;;;;;;5026869;28;20191;-68
2022/11/28 12:43:15;;;;;;;3.30;1.40;;;20.20;55.90;;;;;;5035679;28;20236;-68
2022/11/28 12:46:01;;;;;;;4.28;1.40;;;20.30;55.80;;;;;;5034559;28;20190;-65
2022/11/28 12:48:52;;;;;;;2.95;1.30;;;20.20;55.70;;;;;;5034203;28;20214;-69
2022/11/28 12:51:29;;;;;;;2.95;1.02;;;20.20;55.40;;;;;;5034680;28;20192;-71
2022/11/28 12:54:27;;;;;;;5.05;1.40;;;20.10;55.60;;;;;;5034112;28;20263;-71
2022/11/28 12:56:56;;;;;;;6.13;1.35;;;20.10;55.50;;;;;;5023032;28;20184;-73
2022/11/28 12:59:44;;;;;;;2.03;1.15;;;20.10;55.60;;;;;;5046191;28;20182;-72
2022/11/28 13:02:39;;;;;;;5.30;1.60;;;20.20;55.40;;;;;;5063053;28;20186;-73
2022/11/28 13:05:36;;;;;;;5.88;1.40;;;20.20;55.40;;;;;;5037888;28;20249;-73
2022/11/28 13:08:29;;;;;;;4.88;1.30;;;20.30;55.30;;;;;;5052535;28;20197;-74
2022/11/28 13:11:05;;;;;;;3.42;1.30;;;20.30;55.30;;;;;;5074727;28;20170;-73